createdAt,value
2023-04-22T04:00:29.349Z,0.00
2023-04-22T04:01:30.330Z,0.00
2023-04-22T04:02:30.369Z,0.00
2023-04-22T04:03:31.285Z,0.00
2023-04-22T04:04:30.712Z,0.00
2023-04-22T04:05:30.398Z,0.00
2023-04-22T04:06:30.271Z,0.00
2023-04-22T04:07:30.269Z,0.00
2023-04-22T04:08:30.248Z,0.00
2023-04-22T04:09:30.229Z,0.00
2023-04-22T04:10:30.255Z,0.00
2023-04-22T04:11:30.214Z,0.00
2023-04-22T04:12:30.200Z,5.62
2023-04-22T04:13:30.198Z,5.62
2023-04-22T04:14:30.174Z,5.62
2023-04-22T04:15:30.179Z,5.62
2023-04-22T04:16:30.353Z,5.62
2023-04-22T04:17:30.176Z,5.62
2023-04-22T04:18:30.131Z,5.62
2023-04-22T04:19:30.139Z,5.62
2023-04-22T04:20:30.118Z,5.62
2023-04-22T04:21:30.111Z,5.62
2023-04-22T04:22:30.080Z,5.62
2023-04-22T04:23:30.083Z,5.62
2023-04-22T04:24:30.077Z,5.62
2023-04-22T04:25:30.053Z,5.62
2023-04-22T04:26:30.065Z,5.62
2023-04-22T04:27:30.030Z,5.62
2023-04-22T04:28:30.029Z,5.62
2023-04-22T04:29:30.015Z,5.62
2023-04-22T04:30:31.125Z,5.62
2023-04-22T04:31:30.083Z,11.25
2023-04-22T04:32:29.970Z,11.25
2023-04-22T04:33:29.992Z,11.25
2023-04-22T04:34:29.965Z,11.25
2023-04-22T04:35:29.982Z,11.25
2023-04-22T04:36:29.960Z,11.25
2023-04-22T04:37:29.928Z,11.25
2023-04-22T04:38:29.911Z,11.25
2023-04-22T04:39:29.914Z,11.25
2023-04-22T04:40:29.948Z,11.25
2023-04-22T04:41:29.878Z,11.25
2023-04-22T04:42:29.875Z,11.25
2023-04-22T04:43:29.878Z,11.25
2023-04-22T04:44:29.841Z,11.25
2023-04-22T04:45:29.855Z,11.25
2023-04-22T04:46:29.930Z,11.25
2023-04-22T04:47:29.854Z,11.25
2023-04-22T04:48:29.820Z,11.25
2023-04-22T04:49:29.810Z,11.25
2023-04-22T04:50:29.787Z,16.88
2023-04-22T04:51:29.780Z,16.88
2023-04-22T04:52:29.768Z,16.88
2023-04-22T04:53:29.747Z,16.88
2023-04-22T04:54:29.728Z,16.88
2023-04-22T04:55:29.718Z,16.88
2023-04-22T04:56:29.711Z,16.88
2023-04-22T04:57:29.729Z,16.88
2023-04-22T04:58:29.705Z,16.88
2023-04-22T04:59:29.692Z,16.88
2023-04-22T05:00:29.672Z,16.88
2023-04-22T05:01:29.734Z,16.88
2023-04-22T05:02:29.789Z,16.88
2023-04-22T05:03:29.749Z,16.88
2023-04-22T05:04:29.870Z,16.88
2023-04-22T05:05:29.632Z,16.88
2023-04-22T05:06:29.630Z,16.88
2023-04-22T05:07:29.610Z,16.88
2023-04-22T05:08:29.582Z,22.50
2023-04-22T05:09:29.586Z,22.50
2023-04-22T05:10:29.569Z,22.50
2023-04-22T05:11:29.573Z,22.50
2023-04-22T05:12:29.551Z,22.50
2023-04-22T05:13:29.539Z,22.50
2023-04-22T05:14:29.594Z,22.50
2023-04-22T05:15:29.511Z,22.50
2023-04-22T05:16:29.589Z,22.50
2023-04-22T05:17:29.535Z,22.50
2023-04-22T05:18:29.471Z,22.50
2023-04-22T05:19:29.478Z,22.50
2023-04-22T05:20:29.448Z,22.50
2023-04-22T05:21:29.454Z,22.50
2023-04-22T05:22:29.458Z,22.50
2023-04-22T05:23:29.423Z,22.50
2023-04-22T05:24:29.407Z,22.50
2023-04-22T05:25:29.418Z,22.50
2023-04-22T05:26:29.383Z,28.12
2023-04-22T05:27:29.397Z,28.12
2023-04-22T05:28:29.365Z,28.12
2023-04-22T05:29:29.361Z,28.12
2023-04-22T05:30:29.432Z,28.12
2023-04-22T05:31:29.450Z,28.12
2023-04-22T05:32:29.356Z,28.12
2023-04-22T05:33:29.309Z,28.12
2023-04-22T05:34:29.332Z,28.12
2023-04-22T05:35:29.291Z,28.12
2023-04-22T05:36:31.251Z,28.12
2023-04-22T05:37:29.294Z,28.12
2023-04-22T05:38:29.279Z,28.12
2023-04-22T05:39:29.272Z,28.12
2023-04-22T05:40:29.264Z,28.12
2023-04-22T05:41:29.224Z,28.12
2023-04-22T05:42:29.218Z,28.12
2023-04-22T05:43:29.197Z,28.12
2023-04-22T05:44:29.199Z,33.75
2023-04-22T05:45:29.184Z,33.75
2023-04-22T05:46:29.270Z,33.75
2023-04-22T05:47:29.245Z,33.75
2023-04-22T05:48:29.161Z,33.75
2023-04-22T05:49:29.133Z,33.75
2023-04-22T05:50:29.116Z,33.75
2023-04-22T05:51:29.128Z,33.75
2023-04-22T05:52:29.106Z,33.75
2023-04-22T05:53:29.117Z,33.75
2023-04-22T05:54:29.073Z,33.75
2023-04-22T05:55:29.088Z,33.75
2023-04-22T05:56:29.060Z,33.75
2023-04-22T05:57:29.048Z,33.75
2023-04-22T05:58:29.028Z,33.75
2023-04-22T05:59:29.020Z,33.75
2023-04-22T06:00:29.039Z,39.38
2023-04-22T06:01:29.015Z,39.38
2023-04-22T06:02:29.376Z,39.38
2023-04-22T06:03:29.125Z,39.38
2023-04-22T06:04:29.381Z,39.38
2023-04-22T06:05:29.059Z,39.38
2023-04-22T06:06:28.949Z,39.38
2023-04-22T06:07:28.941Z,39.38
2023-04-22T06:08:28.948Z,39.38
2023-04-22T06:09:28.911Z,39.38
2023-04-22T06:10:28.926Z,39.38
2023-04-22T06:11:28.911Z,39.38
2023-04-22T06:12:28.890Z,39.38
2023-04-22T06:13:28.900Z,39.38
2023-04-22T06:14:28.883Z,39.38
2023-04-22T06:15:28.864Z,45.00
2023-04-22T06:16:28.846Z,45.00
2023-04-22T06:17:28.964Z,45.00
2023-04-22T06:18:28.971Z,45.00
2023-04-22T06:19:28.820Z,45.00
2023-04-22T06:20:28.821Z,45.00
2023-04-22T06:21:28.844Z,45.00
2023-04-22T06:22:28.797Z,45.00
2023-04-22T06:23:28.783Z,45.00
2023-04-22T06:24:28.746Z,45.00
2023-04-22T06:25:28.746Z,45.00
2023-04-22T06:26:28.730Z,45.00
2023-04-22T06:27:28.717Z,45.00
2023-04-22T06:28:28.727Z,50.62
2023-04-22T06:29:28.730Z,50.62
2023-04-22T06:30:28.784Z,50.62
2023-04-22T06:31:28.716Z,50.62
2023-04-22T06:32:28.702Z,50.62
2023-04-22T06:33:28.809Z,50.62
2023-04-22T06:34:28.704Z,50.62
2023-04-22T06:35:28.613Z,50.62
2023-04-22T06:36:30.470Z,50.62
2023-04-22T06:37:28.613Z,50.62
2023-04-22T06:38:28.603Z,56.25
2023-04-22T06:39:28.636Z,56.25
2023-04-22T06:40:28.628Z,56.25
2023-04-22T06:41:28.606Z,56.25
2023-04-22T06:42:28.595Z,56.25
2023-04-22T06:43:28.557Z,61.88
2023-04-22T06:44:28.531Z,61.88
2023-04-22T06:45:28.553Z,61.88
2023-04-22T06:46:28.559Z,61.88
2023-04-22T06:47:28.486Z,61.88
2023-04-22T06:48:28.494Z,61.88
2023-04-22T06:49:28.503Z,61.88
2023-04-22T06:50:28.546Z,67.50
2023-04-22T06:51:28.546Z,61.88
2023-04-22T06:52:28.473Z,61.88
2023-04-22T06:53:28.528Z,67.50
2023-04-22T06:54:28.461Z,67.50
2023-04-22T06:55:28.439Z,67.50
2023-04-22T06:56:28.442Z,67.50
2023-04-22T06:57:28.409Z,67.50
2023-04-22T06:58:28.388Z,67.50
2023-04-22T06:59:28.394Z,67.50
2023-04-22T07:00:28.392Z,67.50
2023-04-22T07:01:28.439Z,67.50
2023-04-22T07:02:28.488Z,67.50
2023-04-22T07:03:28.562Z,67.50
2023-04-22T07:04:28.378Z,73.12
2023-04-22T07:05:28.331Z,73.12
2023-04-22T07:06:28.299Z,61.88
2023-04-22T07:07:28.266Z,73.12
2023-04-22T07:08:28.280Z,73.12
2023-04-22T07:09:28.250Z,73.12
2023-04-22T07:10:28.225Z,73.12
2023-04-22T07:11:28.261Z,73.12
2023-04-22T07:12:28.310Z,73.12
2023-04-22T07:13:28.202Z,73.12
2023-04-22T07:14:28.280Z,73.12
2023-04-22T07:15:28.189Z,73.12
2023-04-22T07:16:28.213Z,73.12
2023-04-22T07:17:28.259Z,73.12
2023-04-22T07:18:28.261Z,73.12
2023-04-22T07:19:28.141Z,73.12
2023-04-22T07:20:28.202Z,73.12
2023-04-22T07:21:28.111Z,73.12
2023-04-22T07:22:28.104Z,73.12
2023-04-22T07:23:28.133Z,73.12
2023-04-22T07:24:28.091Z,73.12
2023-04-22T07:25:28.088Z,78.75
2023-04-22T07:26:28.132Z,73.12
2023-04-22T07:27:28.106Z,78.75
2023-04-22T07:28:28.039Z,73.12
2023-04-22T07:29:28.044Z,73.12
2023-04-22T07:30:28.021Z,78.75
2023-04-22T07:31:28.075Z,78.75
2023-04-22T07:32:28.012Z,78.75
2023-04-22T07:33:27.969Z,78.75
2023-04-22T07:34:27.975Z,78.75
2023-04-22T07:35:27.956Z,78.75
2023-04-22T07:36:27.947Z,78.75
2023-04-22T07:37:27.976Z,78.75
2023-04-22T07:38:27.937Z,78.75
2023-04-22T07:39:27.944Z,78.75
2023-04-22T07:40:27.903Z,78.75
2023-04-22T07:41:27.899Z,84.38
2023-04-22T07:42:27.883Z,84.38
2023-04-22T07:43:27.858Z,84.38
2023-04-22T07:44:27.889Z,90.00
2023-04-22T07:45:27.945Z,90.00
2023-04-22T07:46:27.846Z,84.38
2023-04-22T07:47:27.812Z,84.38
2023-04-22T07:48:27.811Z,84.38
2023-04-22T07:49:27.860Z,84.38
2023-04-22T07:50:27.884Z,84.38
2023-04-22T07:51:27.791Z,84.38
2023-04-22T07:52:27.770Z,90.00
2023-04-22T07:53:27.798Z,95.62
2023-04-22T07:54:27.747Z,95.62
2023-04-22T07:55:27.724Z,95.62
2023-04-22T07:56:27.766Z,95.62
2023-04-22T07:57:27.709Z,95.62
2023-04-22T07:58:27.702Z,95.62
2023-04-22T07:59:27.700Z,95.62
2023-04-22T08:00:27.685Z,95.62
2023-04-22T08:01:27.652Z,95.62
2023-04-22T08:02:27.756Z,101.25
2023-04-22T08:03:27.746Z,101.25
2023-04-22T08:04:28.025Z,101.25
2023-04-22T08:05:27.681Z,101.25
2023-04-22T08:06:27.610Z,101.25
2023-04-22T08:07:33.207Z,101.25
2023-04-22T08:08:27.607Z,101.25
2023-04-22T08:09:27.574Z,101.25
2023-04-22T08:10:27.599Z,101.25
2023-04-22T08:11:27.579Z,106.88
2023-04-22T08:12:27.543Z,106.88
2023-04-22T08:13:27.553Z,106.88
2023-04-22T08:14:27.538Z,106.88
2023-04-22T08:15:27.515Z,106.88
2023-04-22T08:16:27.612Z,106.88
2023-04-22T08:17:27.513Z,106.88
2023-04-22T08:18:27.481Z,106.88
2023-04-22T08:19:27.514Z,106.88
2023-04-22T08:20:27.460Z,106.88
2023-04-22T08:21:27.481Z,106.88
2023-04-22T08:22:27.491Z,106.88
2023-04-22T08:23:27.498Z,106.88
2023-04-22T08:24:27.454Z,112.50
2023-04-22T08:25:27.449Z,112.50
2023-04-22T08:26:27.470Z,112.50
2023-04-22T08:27:27.393Z,112.50
2023-04-22T08:28:27.447Z,112.50
2023-04-22T08:29:27.422Z,112.50
2023-04-22T08:30:27.406Z,112.50
2023-04-22T08:31:27.469Z,112.50
2023-04-22T08:32:27.411Z,112.50
2023-04-22T08:33:27.476Z,112.50
2023-04-22T08:34:27.322Z,112.50
2023-04-22T08:35:27.312Z,112.50
2023-04-22T08:36:27.297Z,112.50
2023-04-22T08:37:27.267Z,112.50
2023-04-22T08:38:27.260Z,112.50
2023-04-22T08:39:27.251Z,118.12
2023-04-22T08:40:27.240Z,118.12
2023-04-22T08:41:27.230Z,118.12
2023-04-22T08:42:27.232Z,118.12
2023-04-22T08:43:27.272Z,118.12
2023-04-22T08:44:27.198Z,118.12
2023-04-22T08:45:27.176Z,118.12
2023-04-22T08:46:27.183Z,118.12
2023-04-22T08:47:27.220Z,123.75
2023-04-22T08:48:27.149Z,123.75
2023-04-22T08:49:27.154Z,123.75
2023-04-22T08:50:27.135Z,123.75
2023-04-22T08:51:27.126Z,123.75
2023-04-22T08:52:27.112Z,123.75
2023-04-22T08:53:27.097Z,123.75
2023-04-22T08:54:27.088Z,123.75
2023-04-22T08:55:27.090Z,123.75
2023-04-22T08:56:27.065Z,123.75
2023-04-22T08:57:27.046Z,129.38
2023-04-22T08:58:27.036Z,129.38
2023-04-22T08:59:27.022Z,129.38
2023-04-22T09:00:27.024Z,129.38
2023-04-22T09:01:27.011Z,129.38
2023-04-22T09:02:27.063Z,129.38
2023-04-22T09:03:27.040Z,129.38
2023-04-22T09:04:26.983Z,129.38
2023-04-22T09:05:27.969Z,135.00
2023-04-22T09:06:26.960Z,135.00
2023-04-22T09:07:26.931Z,135.00
2023-04-22T09:08:26.927Z,135.00
2023-04-22T09:09:26.941Z,135.00
2023-04-22T09:10:26.922Z,135.00
2023-04-22T09:11:26.901Z,135.00
2023-04-22T09:12:26.885Z,135.00
2023-04-22T09:13:26.869Z,135.00
2023-04-22T09:14:26.865Z,140.62
2023-04-22T09:15:26.878Z,140.62
2023-04-22T09:16:26.876Z,140.62
2023-04-22T09:17:26.875Z,140.62
2023-04-22T09:18:26.836Z,140.62
2023-04-22T09:19:26.823Z,140.62
2023-04-22T09:20:26.802Z,140.62
2023-04-22T09:21:26.768Z,140.62
2023-04-22T09:22:26.774Z,140.62
2023-04-22T09:23:26.744Z,140.62
2023-04-22T09:24:26.744Z,140.62
2023-04-22T09:25:26.753Z,140.62
2023-04-22T09:26:26.756Z,140.62
2023-04-22T09:27:26.716Z,140.62
2023-04-22T09:28:26.711Z,140.62
2023-04-22T09:29:26.700Z,140.62
2023-04-22T09:30:26.715Z,140.62
2023-04-22T09:31:26.717Z,140.62
2023-04-22T09:32:26.720Z,140.62
2023-04-22T09:33:26.680Z,140.62
2023-04-22T09:34:26.640Z,140.62
2023-04-22T09:35:26.840Z,140.62
2023-04-22T09:36:26.665Z,140.62
2023-04-22T09:37:35.866Z,140.62
2023-04-22T09:38:26.615Z,140.62
2023-04-22T09:39:26.583Z,140.62
2023-04-22T09:40:26.597Z,140.62
2023-04-22T09:41:26.570Z,140.62
2023-04-22T09:42:26.570Z,140.62
2023-04-22T09:43:26.578Z,140.62
2023-04-22T09:44:26.537Z,140.62
2023-04-22T09:45:26.539Z,146.25
2023-04-22T09:46:26.574Z,146.25
2023-04-22T09:47:26.505Z,146.25
2023-04-22T09:48:26.495Z,146.25
2023-04-22T09:49:26.492Z,146.25
2023-04-22T09:50:26.483Z,146.25
2023-04-22T09:51:26.443Z,146.25
2023-04-22T09:52:26.453Z,146.25
2023-04-22T09:53:26.491Z,146.25
2023-04-22T09:54:26.441Z,146.25
2023-04-22T09:55:26.435Z,151.88
2023-04-22T09:56:26.407Z,151.88
2023-04-22T09:57:26.389Z,151.88
2023-04-22T09:58:26.387Z,151.88
2023-04-22T09:59:26.366Z,151.88
2023-04-22T10:00:26.376Z,151.88
2023-04-22T10:01:26.361Z,151.88
2023-04-22T10:02:26.375Z,151.88
2023-04-22T10:03:26.342Z,157.50
2023-04-22T10:04:26.368Z,157.50
2023-04-22T10:05:26.318Z,157.50
2023-04-22T10:06:26.293Z,157.50
2023-04-22T10:07:26.275Z,157.50
2023-04-22T10:08:26.260Z,157.50
2023-04-22T10:09:26.263Z,157.50
2023-04-22T10:10:26.265Z,157.50
2023-04-22T10:11:26.252Z,157.50
2023-04-22T10:12:33.186Z,163.12
2023-04-22T10:13:26.231Z,163.12
2023-04-22T10:14:26.229Z,163.12
2023-04-22T10:15:27.096Z,163.12
2023-04-22T10:16:26.206Z,163.12
2023-04-22T10:17:26.189Z,168.75
2023-04-22T10:18:26.218Z,168.75
2023-04-22T10:19:26.159Z,168.75
2023-04-22T10:20:26.178Z,168.75
2023-04-22T10:21:26.389Z,174.38
2023-04-22T10:22:26.106Z,180.00
2023-04-22T10:23:26.105Z,174.38
2023-04-22T10:24:26.112Z,174.38
2023-04-22T10:25:26.113Z,174.38
2023-04-22T10:26:26.061Z,174.38
2023-04-22T10:27:26.065Z,174.38
2023-04-22T10:28:26.058Z,180.00
2023-04-22T10:29:26.860Z,180.00
2023-04-22T10:30:26.074Z,180.00
2023-04-22T10:31:26.121Z,180.00
2023-04-22T10:32:26.040Z,180.00
2023-04-22T10:33:25.982Z,180.00
2023-04-22T10:34:25.977Z,185.62
2023-04-22T10:35:25.980Z,185.62
2023-04-22T10:36:25.947Z,185.62
2023-04-22T10:37:25.952Z,185.62
2023-04-22T10:38:25.958Z,185.62
2023-04-22T10:39:25.920Z,185.62
2023-04-22T10:40:25.925Z,185.62
2023-04-22T10:41:25.920Z,191.25
2023-04-22T10:42:25.896Z,191.25
2023-04-22T10:43:25.884Z,191.25
2023-04-22T10:44:25.870Z,191.25
2023-04-22T10:45:26.032Z,191.25
2023-04-22T10:46:25.915Z,196.88
2023-04-22T10:47:25.848Z,196.88
2023-04-22T10:48:25.818Z,196.88
2023-04-22T10:49:25.811Z,196.88
2023-04-22T10:50:25.834Z,196.88
2023-04-22T10:51:25.775Z,196.88
2023-04-22T10:52:25.786Z,196.88
2023-04-22T10:53:25.755Z,196.88
2023-04-22T10:54:27.261Z,196.88
2023-04-22T10:55:25.733Z,196.88
2023-04-22T10:56:25.752Z,196.88
2023-04-22T10:57:25.779Z,196.88
2023-04-22T10:58:25.738Z,196.88
2023-04-22T10:59:25.703Z,196.88
2023-04-22T11:00:25.690Z,202.50
2023-04-22T11:01:25.728Z,196.88
2023-04-22T11:02:25.745Z,196.88
2023-04-22T11:03:25.713Z,196.88
2023-04-22T11:04:25.770Z,196.88
2023-04-22T11:05:26.341Z,196.88
2023-04-22T11:06:25.641Z,196.88
2023-04-22T11:07:25.631Z,196.88
2023-04-22T11:08:25.597Z,196.88
2023-04-22T11:09:25.597Z,196.88
2023-04-22T11:10:25.594Z,196.88
2023-04-22T11:11:25.564Z,196.88
2023-04-22T11:12:25.564Z,196.88
2023-04-22T11:13:25.533Z,196.88
2023-04-22T11:14:25.540Z,196.88
2023-04-22T11:15:25.516Z,196.88
2023-04-22T11:16:25.534Z,196.88
2023-04-22T11:17:25.539Z,196.88
2023-04-22T11:18:25.484Z,196.88
2023-04-22T11:19:25.464Z,196.88
2023-04-22T11:20:25.479Z,196.88
2023-04-22T11:21:25.480Z,196.88
2023-04-22T11:22:25.440Z,196.88
2023-04-22T11:23:25.438Z,196.88
2023-04-22T11:24:25.435Z,202.50
2023-04-22T11:25:25.396Z,196.88
2023-04-22T11:26:25.400Z,196.88
2023-04-22T11:27:25.400Z,196.88
2023-04-22T11:28:25.406Z,196.88
2023-04-22T11:29:25.372Z,196.88
2023-04-22T11:30:25.338Z,202.50
2023-04-22T11:31:25.380Z,202.50
2023-04-22T11:32:25.377Z,202.50
2023-04-22T11:33:25.313Z,196.88
2023-04-22T11:34:25.301Z,196.88
2023-04-22T11:35:25.302Z,196.88
2023-04-22T11:36:25.276Z,196.88
2023-04-22T11:37:25.294Z,196.88
2023-04-22T11:38:25.265Z,202.50
2023-04-22T11:39:25.274Z,202.50
2023-04-22T11:40:30.820Z,202.50
2023-04-22T11:41:25.232Z,202.50
2023-04-22T11:42:25.291Z,202.50
2023-04-22T11:43:25.211Z,202.50
2023-04-22T11:44:25.209Z,202.50
2023-04-22T11:45:25.224Z,208.12
2023-04-22T11:46:25.268Z,208.12
2023-04-22T11:47:25.197Z,225.00
2023-04-22T11:48:25.174Z,253.12
2023-04-22T11:49:25.140Z,247.50
2023-04-22T11:50:25.137Z,219.38
2023-04-22T11:51:25.124Z,208.12
2023-04-22T11:52:25.132Z,213.75
2023-04-22T11:53:25.105Z,236.25
2023-04-22T11:54:25.106Z,264.38
2023-04-22T11:55:25.081Z,264.38
2023-04-22T11:56:25.064Z,275.62
2023-04-22T11:57:25.075Z,270.00
2023-04-22T11:58:25.061Z,270.00
2023-04-22T11:59:25.031Z,264.38
2023-04-22T12:00:25.019Z,264.38
2023-04-22T12:01:25.018Z,275.62
2023-04-22T12:02:25.123Z,275.62
2023-04-22T12:03:25.165Z,270.00
2023-04-22T12:04:25.093Z,270.00
2023-04-22T12:05:25.032Z,270.00
2023-04-22T12:06:24.977Z,275.62
2023-04-22T12:07:25.060Z,275.62
2023-04-22T12:08:24.932Z,281.25
2023-04-22T12:09:24.936Z,286.88
2023-04-22T12:10:24.922Z,298.12
2023-04-22T12:11:24.939Z,315.00
2023-04-22T12:12:24.913Z,348.75
2023-04-22T12:13:24.891Z,365.62
2023-04-22T12:14:24.866Z,365.62
2023-04-22T12:15:24.853Z,348.75
2023-04-22T12:16:24.968Z,348.75
2023-04-22T12:17:24.894Z,360.00
2023-04-22T12:18:24.827Z,365.62
2023-04-22T12:19:24.820Z,365.62
2023-04-22T12:20:24.811Z,365.62
2023-04-22T12:21:24.978Z,371.25
2023-04-22T12:22:24.871Z,376.88
2023-04-22T12:23:24.781Z,382.50
2023-04-22T12:24:24.756Z,371.25
2023-04-22T12:25:24.761Z,376.88
2023-04-22T12:26:26.784Z,365.62
2023-04-22T12:27:24.741Z,371.25
2023-04-22T12:28:24.724Z,388.12
2023-04-22T12:29:24.712Z,382.50
2023-04-22T12:30:24.706Z,393.75
2023-04-22T12:31:24.853Z,371.25
2023-04-22T12:32:25.011Z,365.62
2023-04-22T12:33:24.713Z,371.25
2023-04-22T12:34:24.644Z,337.50
2023-04-22T12:35:24.655Z,320.62
2023-04-22T12:36:24.657Z,365.62
2023-04-22T12:37:24.670Z,376.88
2023-04-22T12:38:24.607Z,416.25
2023-04-22T12:39:24.615Z,427.50
2023-04-22T12:40:24.586Z,410.62
2023-04-22T12:41:24.620Z,382.50
2023-04-22T12:42:25.473Z,410.62
2023-04-22T12:43:24.558Z,461.25
2023-04-22T12:44:25.249Z,438.75
2023-04-22T12:45:24.562Z,427.50
2023-04-22T12:46:24.559Z,455.62
2023-04-22T12:47:24.541Z,455.62
2023-04-22T12:48:24.522Z,450.00
2023-04-22T12:49:24.492Z,455.62
2023-04-22T12:50:24.491Z,455.62
2023-04-22T12:51:24.497Z,455.62
2023-04-22T12:52:24.461Z,478.12
2023-04-22T12:53:24.462Z,455.62
2023-04-22T12:54:24.444Z,444.38
2023-04-22T12:55:24.490Z,433.12
2023-04-22T12:56:24.433Z,450.00
2023-04-22T12:57:24.432Z,483.75
2023-04-22T12:58:24.409Z,517.50
2023-04-22T12:59:24.386Z,511.88
2023-04-22T13:00:24.366Z,495.00
2023-04-22T13:01:24.403Z,511.88
2023-04-22T13:02:24.434Z,511.88
2023-04-22T13:03:24.502Z,489.38
2023-04-22T13:04:24.376Z,506.25
2023-04-22T13:05:24.382Z,495.00
2023-04-22T13:06:24.361Z,506.25
2023-04-22T13:07:24.397Z,517.50
2023-04-22T13:08:24.341Z,556.88
2023-04-22T13:09:24.292Z,590.62
2023-04-22T13:10:24.273Z,568.12
2023-04-22T13:11:24.258Z,630.00
2023-04-22T13:12:24.256Z,613.12
2023-04-22T13:13:24.268Z,568.12
2023-04-22T13:14:24.228Z,618.75
2023-04-22T13:15:24.274Z,601.88
2023-04-22T13:16:24.273Z,551.25
2023-04-22T13:17:24.270Z,545.62
2023-04-22T13:18:24.196Z,624.38
2023-04-22T13:19:24.192Z,641.25
2023-04-22T13:20:24.152Z,663.75
2023-04-22T13:21:24.171Z,630.00
2023-04-22T13:22:24.150Z,630.00
2023-04-22T13:23:24.175Z,624.38
2023-04-22T13:24:24.137Z,641.25
2023-04-22T13:25:24.118Z,635.62
2023-04-22T13:26:24.122Z,635.62
2023-04-22T13:27:24.125Z,669.38
2023-04-22T13:28:24.135Z,703.12
2023-04-22T13:29:24.120Z,663.75
2023-04-22T13:30:24.114Z,669.38
2023-04-22T13:31:24.092Z,697.50
2023-04-22T13:32:24.126Z,691.88
2023-04-22T13:33:24.088Z,686.25
2023-04-22T13:34:24.068Z,675.00
2023-04-22T13:35:24.002Z,675.00
2023-04-22T13:36:23.997Z,691.88
2023-04-22T13:37:24.071Z,720.00
2023-04-22T13:38:23.996Z,663.75
2023-04-22T13:39:24.005Z,663.75
2023-04-22T13:40:23.975Z,675.00
2023-04-22T13:41:23.976Z,652.50
2023-04-22T13:42:23.980Z,663.75
2023-04-22T13:43:23.948Z,675.00
2023-04-22T13:44:23.921Z,652.50
2023-04-22T13:45:25.320Z,613.12
2023-04-22T13:46:24.008Z,658.12
2023-04-22T13:47:24.034Z,613.12
2023-04-22T13:48:23.888Z,624.38
2023-04-22T13:49:23.900Z,658.12
2023-04-22T13:50:23.930Z,624.38
2023-04-22T13:51:23.859Z,646.88
2023-04-22T13:52:23.920Z,703.12
2023-04-22T13:53:23.826Z,725.62
2023-04-22T13:54:23.808Z,720.00
2023-04-22T13:55:23.851Z,742.50
2023-04-22T13:56:23.819Z,798.75
2023-04-22T13:57:23.802Z,821.25
2023-04-22T13:58:23.798Z,759.38
2023-04-22T13:59:23.787Z,663.75
2023-04-22T14:00:23.775Z,658.12
2023-04-22T14:01:23.826Z,731.25
2023-04-22T14:02:23.858Z,765.00
2023-04-22T14:03:23.995Z,736.88
2023-04-22T14:04:23.758Z,742.50
2023-04-22T14:05:23.704Z,731.25
2023-04-22T14:06:23.705Z,720.00
2023-04-22T14:07:23.713Z,731.25
2023-04-22T14:08:23.727Z,714.38
2023-04-22T14:09:23.675Z,663.75
2023-04-22T14:10:23.714Z,646.88
2023-04-22T14:11:23.687Z,635.62
2023-04-22T14:12:23.624Z,601.88
2023-04-22T14:13:23.664Z,658.12
2023-04-22T14:14:23.609Z,646.88
2023-04-22T14:15:23.708Z,579.38
2023-04-22T14:16:23.638Z,607.50
2023-04-22T14:17:23.606Z,669.38
2023-04-22T14:18:23.582Z,635.62
2023-04-22T14:19:23.626Z,596.25
2023-04-22T14:20:23.542Z,618.75
2023-04-22T14:21:25.081Z,596.25
2023-04-22T14:22:23.583Z,556.88
2023-04-22T14:23:23.524Z,562.50
2023-04-22T14:24:23.628Z,540.00
2023-04-22T14:25:23.536Z,585.00
2023-04-22T14:26:23.516Z,646.88
2023-04-22T14:27:23.494Z,613.12
2023-04-22T14:28:23.502Z,630.00
2023-04-22T14:29:23.513Z,669.38
2023-04-22T14:30:23.459Z,714.38
2023-04-22T14:31:23.541Z,720.00
2023-04-22T14:32:23.466Z,686.25
2023-04-22T14:33:23.467Z,669.38
2023-04-22T14:34:23.448Z,680.62
2023-04-22T14:35:23.432Z,691.88
2023-04-22T14:36:23.434Z,736.88
2023-04-22T14:37:24.025Z,781.88
2023-04-22T14:38:23.407Z,759.38
2023-04-22T14:39:23.395Z,736.88
2023-04-22T14:40:23.470Z,714.38
2023-04-22T14:41:23.358Z,652.50
2023-04-22T14:42:23.348Z,658.12
2023-04-22T14:43:23.405Z,725.62
2023-04-22T14:44:23.316Z,748.12
2023-04-22T14:45:23.302Z,759.38
2023-04-22T14:46:23.340Z,686.25
2023-04-22T14:47:23.353Z,523.12
2023-04-22T14:48:23.279Z,371.25
2023-04-22T14:49:23.277Z,438.75
2023-04-22T14:50:23.636Z,495.00
2023-04-22T14:51:23.265Z,450.00
2023-04-22T14:52:23.272Z,410.62
2023-04-22T14:53:23.261Z,410.62
2023-04-22T14:54:23.207Z,416.25
2023-04-22T14:55:24.164Z,393.75
2023-04-22T14:56:23.194Z,393.75
2023-04-22T14:57:23.191Z,388.12
2023-04-22T14:58:23.205Z,371.25
2023-04-22T14:59:23.161Z,286.88
2023-04-22T15:00:23.167Z,315.00
2023-04-22T15:01:23.181Z,601.88
2023-04-22T15:02:23.327Z,658.12
2023-04-22T15:03:23.276Z,596.25
2023-04-22T15:04:23.324Z,540.00
2023-04-22T15:05:23.100Z,523.12
2023-04-22T15:06:23.164Z,528.75
2023-04-22T15:07:23.086Z,596.25
2023-04-22T15:08:23.069Z,624.38
2023-04-22T15:09:23.046Z,540.00
2023-04-22T15:10:23.039Z,433.12
2023-04-22T15:11:23.058Z,421.88
2023-04-22T15:12:23.044Z,399.38
2023-04-22T15:13:23.027Z,421.88
2023-04-22T15:14:22.996Z,551.25
2023-04-22T15:15:23.005Z,624.38
2023-04-22T15:16:23.068Z,703.12
2023-04-22T15:17:22.993Z,720.00
2023-04-22T15:18:22.980Z,658.12
2023-04-22T15:19:22.947Z,675.00
2023-04-22T15:20:22.968Z,720.00
2023-04-22T15:21:23.325Z,731.25
2023-04-22T15:22:22.987Z,691.88
2023-04-22T15:23:23.014Z,680.62
2023-04-22T15:24:22.911Z,697.50
2023-04-22T15:25:22.890Z,703.12
2023-04-22T15:26:22.931Z,686.25
2023-04-22T15:27:22.917Z,669.38
2023-04-22T15:28:22.863Z,652.50
2023-04-22T15:29:22.850Z,652.50
2023-04-22T15:30:22.830Z,641.25
2023-04-22T15:31:22.957Z,641.25
2023-04-22T15:32:22.826Z,652.50
2023-04-22T15:33:24.159Z,663.75
2023-04-22T15:34:22.830Z,680.62
2023-04-22T15:35:22.812Z,691.88
2023-04-22T15:36:22.796Z,669.38
2023-04-22T15:37:22.780Z,686.25
2023-04-22T15:38:22.757Z,630.00
2023-04-22T15:39:22.837Z,579.38
2023-04-22T15:40:22.788Z,596.25
2023-04-22T15:41:22.739Z,601.88
2023-04-22T15:42:22.738Z,590.62
2023-04-22T15:43:22.741Z,573.75
2023-04-22T15:44:22.707Z,618.75
2023-04-22T15:45:22.840Z,669.38
2023-04-22T15:46:22.770Z,669.38
2023-04-22T15:47:22.785Z,675.00
2023-04-22T15:48:22.705Z,680.62
2023-04-22T15:49:22.706Z,675.00
2023-04-22T15:50:22.651Z,691.88
2023-04-22T15:51:22.656Z,686.25
2023-04-22T15:52:25.426Z,646.88
2023-04-22T15:53:22.917Z,630.00
2023-04-22T15:54:23.481Z,630.00
2023-04-22T15:55:23.214Z,669.38
2023-04-22T15:56:22.924Z,641.25
2023-04-22T15:57:24.504Z,652.50
2023-04-22T15:58:22.562Z,663.75
2023-04-22T15:59:22.553Z,669.38
2023-04-22T16:00:22.552Z,669.38
2023-04-22T16:01:22.666Z,675.00
2023-04-22T16:02:22.691Z,669.38
2023-04-22T16:03:22.650Z,635.62
2023-04-22T16:04:22.682Z,607.50
2023-04-22T16:05:22.509Z,585.00
2023-04-22T16:06:22.489Z,568.12
2023-04-22T16:07:22.466Z,528.75
2023-04-22T16:08:22.458Z,478.12
2023-04-22T16:09:22.435Z,399.38
2023-04-22T16:10:22.441Z,365.62
2023-04-22T16:11:22.475Z,365.62
2023-04-22T16:12:22.399Z,371.25
2023-04-22T16:13:22.406Z,427.50
2023-04-22T16:14:22.392Z,444.38
2023-04-22T16:15:22.398Z,410.62
2023-04-22T16:16:22.429Z,354.38
2023-04-22T16:17:22.402Z,337.50
2023-04-22T16:18:22.363Z,348.75
2023-04-22T16:19:22.524Z,433.12
2023-04-22T16:20:22.346Z,438.75
2023-04-22T16:21:22.313Z,444.38
2023-04-22T16:22:22.318Z,438.75
2023-04-22T16:23:22.295Z,455.62
2023-04-22T16:24:22.316Z,500.62
2023-04-22T16:25:22.327Z,517.50
2023-04-22T16:26:22.288Z,528.75
2023-04-22T16:27:22.264Z,523.12
2023-04-22T16:28:22.251Z,511.88
2023-04-22T16:29:22.260Z,511.88
2023-04-22T16:30:22.250Z,472.50
2023-04-22T16:31:22.285Z,421.88
2023-04-22T16:32:22.207Z,444.38
2023-04-22T16:33:22.200Z,466.88
2023-04-22T16:34:22.183Z,483.75
2023-04-22T16:35:22.198Z,495.00
2023-04-22T16:36:22.177Z,500.62
2023-04-22T16:37:22.147Z,483.75